King Canola — VRLX9 — position and weather

sailwx.info

Track history (hours):
 
Tides and Currents Weather Stations Pressure Air Temp Water Temp Dewpoint Dewpoint Depression Visibility Wind Speed Wind Dir Waves Ship Positions

King Canola

Last reported at 2018-Jun-25 16:44 UTC. Time now 2018-Jun-25 19:42 UTC.
Position S 07°12' E 112°43'.

Length 170 m; draft 8.3 m.

Type: Cargo ship. MMSI: 477243700.

Date/timePositionNaut miles runAvg speedWind from/ knotsBaromVisibWave heightAir tempDewpointWater temp
2018-Jun-25 16:44S 07°12' E 112°43'0 0.0
2018-Jun-25 13:47S 07°12' E 112°43'0 0.0
2018-Jun-25 11:20S 07°12' E 112°43'0 0.0
2018-Jun-25 10:59S 07°12' E 112°43'0 0.0
2018-Jun-25 10:23S 07°12' E 112°43'0 0.0
2018-Jun-25 08:26S 07°12' E 112°43'0 0.0
2018-Jun-25 07:50S 07°12' E 112°43'0 0.0
2018-Jun-25 06:53S 07°12' E 112°43'0 0.0
2018-Jun-25 06:29S 07°12' E 112°43'0 0.0
2018-Jun-25 05:20S 07°12' E 112°43'0 0.0
2018-Jun-25 04:38S 07°12' E 112°43'0 0.0
2018-Jun-25 04:26S 07°12' E 112°43'0 0.0
2018-Jun-25 03:50S 07°12' E 112°43'0 0.0
2018-Jun-25 03:23S 07°12' E 112°43'0 0.0
2018-Jun-25 02:50S 07°12' E 112°43'0 0.0
2018-Jun-25 02:20S 07°12' E 112°43'0 0.0
2018-Jun-25 01:56S 07°12' E 112°43'0 0.0
2018-Jun-25 01:29S 07°12' E 112°43'0 0.0
2018-Jun-25 00:53S 07°12' E 112°43'0 0.0
2018-Jun-24 23:20S 07°12' E 112°43'0 0.0
2018-Jun-24 22:47S 07°12' E 112°43'0 0.5
2018-Jun-24 22:30S 07°12' E 112°43'4 6.0
2018-Jun-24 21:51S 07°10' E 112°40'711.5
2018-Jun-24 21:13S 07°02' E 112°40'411.5
2018-Jun-24 20:50S 06°58' E 112°42'411.2
2018-Jun-24 20:26S 06°54' E 112°44'4 6.3
2018-Jun-24 19:47S 06°51' E 112°46'1 0.0
2018-Jun-23 00:26S 06°50' E 112°46'0 0.2
2018-Jun-23 00:00S 06°50' E 112°46'0 0.9
2018-Jun-22 23:28S 06°50' E 112°46'2 4.1
2018-Jun-22 22:58S 06°48' E 112°46'5 9.2
2018-Jun-22 22:25S 06°46' E 112°51'411.1
2018-Jun-22 22:00S 06°45' E 112°55'4 6.8
2018-Jun-22 21:22S 06°44' E 112°60'511.9
2018-Jun-22 20:58S 06°44' E 113°05'  
Track history (hours):
 
Tides and Currents Weather Stations Pressure Air Temp Water Temp Dewpoint Dewpoint Depression Visibility Wind Speed Wind Dir Waves Ship Positions

King Canola

Last reported at 2018-Jun-25 16:44 UTC. Time now 2018-Jun-25 19:42 UTC.
Position S 07°12' E 112°43'.

Length 170 m; draft 8.3 m.

Type: Cargo ship. MMSI: 477243700.

Date/timePositionNaut miles runAvg speedWind from/ knotsBaromVisibWave heightAir tempDewpointWater temp
2018-Jun-25 16:44S 07°12' E 112°43'0 0.0
2018-Jun-25 13:47S 07°12' E 112°43'0 0.0
2018-Jun-25 11:20S 07°12' E 112°43'0 0.0
2018-Jun-25 10:59S 07°12' E 112°43'0 0.0
2018-Jun-25 10:23S 07°12' E 112°43'0 0.0
2018-Jun-25 08:26S 07°12' E 112°43'0 0.0
2018-Jun-25 07:50S 07°12' E 112°43'0 0.0
2018-Jun-25 06:53S 07°12' E 112°43'0 0.0
2018-Jun-25 06:29S 07°12' E 112°43'0 0.0
2018-Jun-25 05:20S 07°12' E 112°43'0 0.0
2018-Jun-25 04:38S 07°12' E 112°43'0 0.0
2018-Jun-25 04:26S 07°12' E 112°43'0 0.0
2018-Jun-25 03:50S 07°12' E 112°43'0 0.0
2018-Jun-25 03:23S 07°12' E 112°43'0 0.0
2018-Jun-25 02:50S 07°12' E 112°43'0 0.0
2018-Jun-25 02:20S 07°12' E 112°43'0 0.0
2018-Jun-25 01:56S 07°12' E 112°43'0 0.0
2018-Jun-25 01:29S 07°12' E 112°43'0 0.0
2018-Jun-25 00:53S 07°12' E 112°43'0 0.0
2018-Jun-24 23:20S 07°12' E 112°43'0 0.0
2018-Jun-24 22:47S 07°12' E 112°43'0 0.5
2018-Jun-24 22:30S 07°12' E 112°43'4 6.0
2018-Jun-24 21:51S 07°10' E 112°40'711.5
2018-Jun-24 21:13S 07°02' E 112°40'411.5
2018-Jun-24 20:50S 06°58' E 112°42'411.2
2018-Jun-24 20:26S 06°54' E 112°44'4 6.3
2018-Jun-24 19:47S 06°51' E 112°46'1 0.0
2018-Jun-23 00:26S 06°50' E 112°46'0 0.2
2018-Jun-23 00:00S 06°50' E 112°46'0 0.9
2018-Jun-22 23:28S 06°50' E 112°46'2 4.1
2018-Jun-22 22:58S 06°48' E 112°46'5 9.2
2018-Jun-22 22:25S 06°46' E 112°51'411.1
2018-Jun-22 22:00S 06°45' E 112°55'4 6.8
2018-Jun-22 21:22S 06°44' E 112°60'511.9
2018-Jun-22 20:58S 06°44' E 113°05'  

Dump ship's entire track history